Time;durP1;ratioP1;P1;durP2;ratioP2;P2;SDS_P1;SDS_P2;PMS_P1;PMS_P2;Temp;Humidity;BMP_temperature;BMP_pressure;BME280_temperature;BME280_humidity;BME280_pressure;Samples;Min_cycle;Max_cycle;Signal;HPM_P1;HPM_P2
2022/01/18 00:00:55;;;;;;;7.13;5.25;;;;;;;;;;5055178;28;20038;-73
2022/01/18 00:03:21;;;;;;;6.78;4.85;;;;;;;;;;5055438;28;20108;-73
2022/01/18 00:05:49;;;;;;;5.80;4.43;;;;;;;;;;5046976;28;20427;-73
2022/01/18 00:08:17;;;;;;;7.15;4.88;;;;;;;;;;5035433;28;20045;-73
2022/01/18 00:10:44;;;;;;;7.72;5.32;;;;;;;;;;5033928;28;20515;-73
2022/01/18 00:13:38;;;;;;;6.78;5.38;;;;;;;;;;5035252;28;20472;-73
2022/01/18 00:18:33;;;;;;;6.57;4.88;;;;;;;;;;5035169;28;20041;-72
2022/01/18 00:21:16;;;;;;;6.50;5.05;;;;;;;;;;5043246;28;20036;-72
2022/01/18 00:23:46;;;;;;;6.38;5.03;;;;;;;;;;5054811;28;20060;-73
2022/01/18 00:26:13;;;;;;;9.85;5.60;;;;;;;;;;5054688;28;20063;-73
2022/01/18 00:28:40;;;;;;;6.72;5.20;;;;;;;;;;5053416;28;20032;-73
2022/01/18 00:38:55;;;;;;;7.93;5.13;;;;;;;;;;5054783;28;20163;-73
2022/01/18 00:41:23;;;;;;;6.15;4.72;;;;;;;;;;5047990;28;20171;-73
2022/01/18 00:43:49;;;;;;;6.57;4.55;;;;;;;;;;5033366;28;20113;-73
2022/01/18 00:46:16;;;;;;;7.22;4.80;;;;;;;;;;5034394;28;20505;-73
2022/01/18 00:48:43;;;;;;;6.00;4.68;;;;;;;;;;5034848;28;20022;-72
2022/01/18 00:51:12;;;;;;;6.88;4.88;;;;;;;;;;5034533;28;20102;-72
2022/01/18 00:53:39;;;;;;;7.60;5.10;;;;;;;;;;5032939;28;20106;-73
2022/01/18 00:58:41;;;;;;;6.57;4.87;;;;;;;;;;5034482;28;20076;-72
2022/01/18 01:01:08;;;;;;;6.85;4.75;;;;;;;;;;5034311;28;20488;-72
2022/01/18 01:03:35;;;;;;;6.32;4.50;;;;;;;;;;5032480;28;20127;-72
2022/01/18 01:06:04;;;;;;;5.53;4.18;;;;;;;;;;5042916;28;20063;-73
2022/01/18 01:08:37;;;;;;;6.93;4.70;;;;;;;;;;5054360;28;20035;-72
2022/01/18 01:11:05;;;;;;;5.63;4.27;;;;;;;;;;5052816;28;20021;-72
2022/01/18 01:13:32;;;;;;;6.32;4.22;;;;;;;;;;5053830;28;20075;-72
2022/01/18 01:18:43;;;;;;;5.95;4.07;;;;;;;;;;5054265;28;20033;-72
2022/01/18 01:43:10;;;;;;;5.68;3.67;;;;;;;;;;5052240;28;20071;-72
2022/01/18 01:45:36;;;;;;;4.35;3.35;;;;;;;;;;5053068;28;20040;-72
2022/01/18 01:48:03;;;;;;;4.88;3.60;;;;;;;;;;5053310;28;20017;-72
2022/01/18 01:50:53;;;;;;;4.97;3.42;;;;;;;;;;5053167;28;20075;-72
2022/01/18 01:53:21;;;;;;;5.88;3.55;;;;;;;;;;5053262;28;20090;-72
2022/01/18 01:55:47;;;;;;;3.90;3.15;;;;;;;;;;5053000;28;20033;-72
2022/01/18 01:58:14;;;;;;;5.03;3.70;;;;;;;;;;5051572;28;20541;-73
2022/01/18 02:00:53;;;;;;;3.70;3.10;;;;;;;;;;5053227;28;20031;-73
2022/01/18 02:03:19;;;;;;;4.15;2.95;;;;;;;;;;5052851;28;20025;-73
2022/01/18 02:05:46;;;;;;;5.25;3.75;;;;;;;;;;5044800;28;20041;-73
2022/01/18 02:08:15;;;;;;;3.95;2.92;;;;;;;;;;5032269;28;20048;-73
2022/01/18 02:10:42;;;;;;;4.60;3.45;;;;;;;;;;5040577;28;20033;-73
2022/01/18 02:13:09;;;;;;;3.03;2.63;;;;;;;;;;5035684;28;20017;-73
2022/01/18 02:15:40;;;;;;;4.13;3.25;;;;;;;;;;5052687;28;20558;-73
2022/01/18 02:23:36;;;;;;;3.55;2.90;;;;;;;;;;5032830;28;20044;-73
2022/01/18 02:26:02;;;;;;;3.65;2.70;;;;;;;;;;5036322;28;20033;-73
2022/01/18 02:28:28;;;;;;;3.03;2.72;;;;;;;;;;5052452;28;20025;-73
2022/01/18 02:30:55;;;;;;;4.30;2.80;;;;;;;;;;5052683;28;20033;-73
2022/01/18 02:33:21;;;;;;;3.42;2.45;;;;;;;;;;5051854;28;20102;-73
2022/01/18 02:35:47;;;;;;;4.38;2.80;;;;;;;;;;5051207;28;20017;-73
2022/01/18 02:38:13;;;;;;;3.33;2.63;;;;;;;;;;5052611;28;20465;-73
2022/01/18 02:40:41;;;;;;;4.07;2.90;;;;;;;;;;5050693;28;20021;-73
2022/01/18 02:46:10;;;;;;;3.22;2.50;;;;;;;;;;5069879;28;20028;-73
2022/01/18 02:48:36;;;;;;;2.85;2.50;;;;;;;;;;5055804;28;20040;-73
2022/01/18 02:51:03;;;;;;;3.75;2.60;;;;;;;;;;5051955;28;20052;-73
2022/01/18 02:53:29;;;;;;;3.90;2.30;;;;;;;;;;5051602;28;20025;-73
2022/01/18 02:55:56;;;;;;;2.92;2.40;;;;;;;;;;5052101;28;20016;-73
2022/01/18 02:58:34;;;;;;;3.05;2.50;;;;;;;;;;5051912;28;20404;-73
2022/01/18 03:03:45;;;;;;;2.65;2.33;;;;;;;;;;5052146;28;20443;-73
2022/01/18 03:06:11;;;;;;;2.53;1.90;;;;;;;;;;5040514;28;20176;-73
2022/01/18 03:08:37;;;;;;;2.75;2.28;;;;;;;;;;5032124;28;20024;-73
2022/01/18 03:11:03;;;;;;;2.22;1.80;;;;;;;;;;5032085;28;20029;-73
2022/01/18 03:13:30;;;;;;;2.58;1.83;;;;;;;;;;5031934;28;20033;-73
2022/01/18 03:15:56;;;;;;;2.58;2.10;;;;;;;;;;5032292;28;20029;-73
2022/01/18 03:18:22;;;;;;;2.97;2.00;;;;;;;;;;5045031;28;20025;-73
2022/01/18 03:20:48;;;;;;;2.40;1.95;;;;;;;;;;5054538;28;20031;-73
2022/01/18 03:23:19;;;;;;;2.25;1.85;;;;;;;;;;5055486;28;20455;-73
2022/01/18 03:28:26;;;;;;;2.42;1.90;;;;;;;;;;5056574;28;20025;-73
2022/01/18 03:30:59;;;;;;;2.83;1.98;;;;;;;;;;5055048;28;20408;-73
2022/01/18 03:33:27;;;;;;;2.20;1.60;;;;;;;;;;5056099;28;20055;-73
2022/01/18 03:35:54;;;;;;;2.13;1.92;;;;;;;;;;5055398;28;20290;-73
2022/01/18 03:38:21;;;;;;;2.38;1.88;;;;;;;;;;5055421;28;20041;-73
2022/01/18 03:40:47;;;;;;;1.70;1.60;;;;;;;;;;5055083;28;20036;-73
2022/01/18 03:43:14;;;;;;;2.88;2.10;;;;;;;;;;5056376;28;20033;-73
2022/01/18 03:45:44;;;;;;;2.50;1.77;;;;;;;;;;5056319;28;20025;-75
2022/01/18 03:48:33;;;;;;;2.35;1.60;;;;;;;;;;5056736;28;20108;-73
2022/01/18 03:50:59;;;;;;;2.28;1.88;;;;;;;;;;5054547;28;20159;-73
2022/01/18 03:53:25;;;;;;;2.47;1.83;;;;;;;;;;5056112;28;20036;-73
2022/01/18 03:55:54;;;;;;;2.28;1.63;;;;;;;;;;5056141;28;20036;-73
2022/01/18 03:58:20;;;;;;;2.33;1.70;;;;;;;;;;5056047;28;20040;-73
2022/01/18 04:01:02;;;;;;;1.88;1.63;;;;;;;;;;5056066;28;20032;-73
2022/01/18 04:03:36;;;;;;;1.77;1.60;;;;;;;;;;5056279;28;20399;-74
2022/01/18 04:06:02;;;;;;;2.55;1.90;;;;;;;;;;5045298;28;20037;-73
2022/01/18 04:08:29;;;;;;;2.28;1.65;;;;;;;;;;5036070;28;20033;-73
2022/01/18 04:10:55;;;;;;;2.40;1.95;;;;;;;;;;5036105;28;20045;-73
2022/01/18 04:13:22;;;;;;;3.03;1.83;;;;;;;;;;5034829;28;20029;-73
2022/01/18 04:15:51;;;;;;;2.90;1.95;;;;;;;;;;5035698;28;20025;-73
2022/01/18 04:18:33;;;;;;;3.28;2.00;;;;;;;;;;5048245;28;20483;-73
2022/01/18 04:28:59;;;;;;;2.90;2.33;;;;;;;;;;5054624;28;20455;-73
2022/01/18 04:31:26;;;;;;;2.28;1.95;;;;;;;;;;5053657;28;20458;-73
2022/01/18 04:33:52;;;;;;;3.10;2.20;;;;;;;;;;5054918;28;20020;-73
2022/01/18 04:36:19;;;;;;;2.45;1.90;;;;;;;;;;5054841;28;20511;-73
2022/01/18 04:38:45;;;;;;;2.50;2.00;;;;;;;;;;5054311;28;20029;-73
2022/01/18 04:41:15;;;;;;;2.63;1.90;;;;;;;;;;5049876;28;20035;-73
2022/01/18 04:48:56;;;;;;;2.55;2.10;;;;;;;;;;5034679;28;20045;-74
2022/01/18 04:51:22;;;;;;;3.00;2.20;;;;;;;;;;5033594;28;20114;-74
2022/01/18 04:53:53;;;;;;;2.60;2.10;;;;;;;;;;5034334;28;20140;-74
2022/01/18 04:56:28;;;;;;;2.42;1.98;;;;;;;;;;5032955;28;20026;-74
2022/01/18 04:58:54;;;;;;;2.72;2.05;;;;;;;;;;5033077;28;20080;-74
2022/01/18 05:01:20;;;;;;;2.35;2.15;;;;;;;;;;5033762;28;20087;-74
2022/01/18 05:03:46;;;;;;;2.08;1.77;;;;;;;;;;5034172;28;20163;-74
2022/01/18 05:06:16;;;;;;;2.83;2.22;;;;;;;;;;5046091;28;20496;-73
2022/01/18 05:08:42;;;;;;;3.45;2.22;;;;;;;;;;5054019;28;20037;-74
2022/01/18 05:11:12;;;;;;;2.40;1.88;;;;;;;;;;5054131;28;20024;-74
2022/01/18 05:21:26;;;;;;;2.67;1.92;;;;;;;;;;5033406;28;20557;-73
2022/01/18 05:23:52;;;;;;;2.47;1.92;;;;;;;;;;5033826;28;20022;-73
2022/01/18 05:26:20;;;;;;;2.60;2.22;;;;;;;;;;5033844;28;20029;-74
2022/01/18 05:28:47;;;;;;;2.72;2.00;;;;;;;;;;5033758;28;20104;-74
2022/01/18 05:31:13;;;;;;;2.03;1.70;;;;;;;;;;5033847;28;20113;-74
2022/01/18 05:33:40;;;;;;;2.22;1.90;;;;;;;;;;5033069;28;20045;-74
2022/01/18 05:36:07;;;;;;;2.42;2.00;;;;;;;;;;5033632;28;20036;-74
2022/01/18 05:38:33;;;;;;;2.67;1.65;;;;;;;;;;5033355;28;20025;-74
2022/01/18 05:40:59;;;;;;;1.90;1.60;;;;;;;;;;5036183;28;20041;-74
2022/01/18 05:43:26;;;;;;;3.17;1.80;;;;;;;;;;5051987;28;20055;-74
2022/01/18 05:45:52;;;;;;;2.85;2.00;;;;;;;;;;5053367;28;20087;-74
2022/01/18 05:48:18;;;;;;;2.35;1.90;;;;;;;;;;5053175;28;20096;-74
2022/01/18 05:50:44;;;;;;;2.15;1.85;;;;;;;;;;5053288;28;20446;-74
2022/01/18 05:53:10;;;;;;;3.47;2.03;;;;;;;;;;5052470;28;20017;-74
2022/01/18 05:55:36;;;;;;;2.53;1.83;;;;;;;;;;5053209;28;20141;-74
2022/01/18 05:58:02;;;;;;;2.75;1.42;;;;;;;;;;5051598;28;20470;-74
2022/01/18 06:00:30;;;;;;;2.05;1.67;;;;;;;;;;5053101;28;20033;-74
2022/01/18 06:08:07;;;;;;;3.75;1.63;;;;;;;;;;5032964;28;20113;-74
2022/01/18 06:10:34;;;;;;;2.17;1.60;;;;;;;;;;5032887;28;20029;-74
2022/01/18 06:13:02;;;;;;;2.65;1.55;;;;;;;;;;5032745;28;20057;-74
2022/01/18 06:15:28;;;;;;;2.97;1.55;;;;;;;;;;5032911;28;20018;-74
2022/01/18 06:17:54;;;;;;;1.63;1.45;;;;;;;;;;5041674;28;20033;-74
2022/01/18 06:20:20;;;;;;;2.65;1.80;;;;;;;;;;5052640;28;20029;-74
2022/01/18 06:22:46;;;;;;;2.15;1.67;;;;;;;;;;5052521;28;20031;-74
2022/01/18 06:25:12;;;;;;;2.55;1.75;;;;;;;;;;5052269;28;20514;-75
2022/01/18 06:27:39;;;;;;;2.47;1.70;;;;;;;;;;5052440;28;20025;-75
2022/01/18 06:30:10;;;;;;;2.65;1.75;;;;;;;;;;5051216;28;20405;-75
2022/01/18 06:32:40;;;;;;;2.50;1.75;;;;;;;;;;5051190;28;20028;-75
2022/01/18 06:35:06;;;;;;;2.90;1.77;;;;;;;;;;5052735;28;20021;-75
2022/01/18 06:37:33;;;;;;;3.10;1.80;;;;;;;;;;5052158;28;20055;-75
2022/01/18 06:40:01;;;;;;;2.30;1.92;;;;;;;;;;5050812;28;20025;-75
2022/01/18 06:42:27;;;;;;;2.38;1.50;;;;;;;;;;5036918;28;20488;-75
2022/01/18 06:44:53;;;;;;;2.13;1.88;;;;;;;;;;5032310;28;20022;-75
2022/01/18 06:47:19;;;;;;;3.55;1.77;;;;;;;;;;5032202;28;20036;-75
2022/01/18 06:49:45;;;;;;;2.80;1.80;;;;;;;;;;5031217;28;20116;-74
2022/01/18 06:52:11;;;;;;;2.03;1.63;;;;;;;;;;5032034;28;20030;-75
2022/01/18 06:54:37;;;;;;;1.83;1.52;;;;;;;;;;5030741;28;20067;-75
2022/01/18 06:57:04;;;;;;;2.97;2.00;;;;;;;;;;5032023;28;20053;-75
2022/01/18 06:59:30;;;;;;;2.45;1.60;;;;;;;;;;5032299;28;20033;-75
2022/01/18 07:01:56;;;;;;;2.58;1.75;;;;;;;;;;5031585;28;20033;-74
2022/01/18 07:04:22;;;;;;;3.22;1.88;;;;;;;;;;5032005;28;20041;-75
2022/01/18 07:06:48;;;;;;;3.03;1.88;;;;;;;;;;5048673;28;20095;-75
2022/01/18 07:09:15;;;;;;;2.53;1.85;;;;;;;;;;5052217;28;20048;-75
2022/01/18 07:11:43;;;;;;;3.85;2.22;;;;;;;;;;5051924;28;20039;-75
2022/01/18 07:14:09;;;;;;;3.92;2.03;;;;;;;;;;5052239;28;20016;-75
2022/01/18 07:16:35;;;;;;;3.35;2.03;;;;;;;;;;5052333;28;20029;-75
2022/01/18 07:19:01;;;;;;;5.07;2.45;;;;;;;;;;5033658;28;20022;-75
2022/01/18 07:21:27;;;;;;;3.28;2.20;;;;;;;;;;5031685;28;20481;-75
2022/01/18 07:24:03;;;;;;;4.25;2.25;;;;;;;;;;5031018;28;20022;-75
2022/01/18 07:26:29;;;;;;;3.85;2.55;;;;;;;;;;5030649;28;20084;-75
2022/01/18 07:28:56;;;;;;;3.47;2.33;;;;;;;;;;5032305;28;20041;-75
2022/01/18 07:31:22;;;;;;;3.33;2.40;;;;;;;;;;5031502;28;20017;-75
2022/01/18 07:33:48;;;;;;;3.30;2.58;;;;;;;;;;5032027;28;20018;-75
2022/01/18 07:36:14;;;;;;;3.08;2.42;;;;;;;;;;5032058;28;20112;-75
2022/01/18 07:38:40;;;;;;;6.45;2.95;;;;;;;;;;5030956;28;20120;-75
2022/01/18 07:41:06;;;;;;;3.55;2.72;;;;;;;;;;5034458;28;20032;-75
2022/01/18 07:43:33;;;;;;;4.07;2.30;;;;;;;;;;5051337;28;20488;-75
2022/01/18 07:45:59;;;;;;;4.55;2.35;;;;;;;;;;5052058;28;20029;-75
2022/01/18 07:48:25;;;;;;;5.82;2.60;;;;;;;;;;5050948;28;20086;-74
2022/01/18 07:50:53;;;;;;;3.30;2.42;;;;;;;;;;5049956;28;20480;-74
2022/01/18 07:53:19;;;;;;;3.03;2.28;;;;;;;;;;5051451;28;20017;-74
2022/01/18 07:55:47;;;;;;;3.90;2.60;;;;;;;;;;5051581;28;20029;-74
2022/01/18 07:58:13;;;;;;;3.63;2.28;;;;;;;;;;5049108;28;20091;-74
2022/01/18 08:00:39;;;;;;;4.32;2.58;;;;;;;;;;5045353;28;20060;-73
2022/01/18 08:03:06;;;;;;;3.28;2.30;;;;;;;;;;5048458;28;20109;-73
2022/01/18 08:05:32;;;;;;;3.60;2.72;;;;;;;;;;5041255;28;20034;-73
2022/01/18 08:07:58;;;;;;;3.63;2.63;;;;;;;;;;5048583;28;20017;-73
2022/01/18 08:10:30;;;;;;;3.78;2.88;;;;;;;;;;5051819;28;20021;-74
2022/01/18 08:12:56;;;;;;;5.72;2.78;;;;;;;;;;5051691;28;20021;-74
2022/01/18 08:15:23;;;;;;;3.80;2.42;;;;;;;;;;5052261;28;20120;-74
2022/01/18 08:17:50;;;;;;;3.42;2.70;;;;;;;;;;5043261;28;20036;-74
2022/01/18 08:20:18;;;;;;;4.18;2.90;;;;;;;;;;5041868;28;20025;-74
2022/01/18 08:22:45;;;;;;;4.97;3.30;;;;;;;;;;5042291;28;20101;-74
2022/01/18 08:25:12;;;;;;;4.70;3.20;;;;;;;;;;5048735;28;20021;-75
2022/01/18 08:27:38;;;;;;;5.95;2.33;;;;;;;;;;5048853;28;20606;-75
2022/01/18 08:30:06;;;;;;;5.60;2.65;;;;;;;;;;5047717;28;20021;-75
2022/01/18 08:32:32;;;;;;;4.30;2.22;;;;;;;;;;5044837;28;20136;-75
2022/01/18 08:34:59;;;;;;;3.40;2.33;;;;;;;;;;5044570;28;20071;-75
2022/01/18 08:37:25;;;;;;;4.47;2.42;;;;;;;;;;5047381;28;20083;-75
2022/01/18 08:39:51;;;;;;;6.22;2.42;;;;;;;;;;5047059;28;20029;-75
2022/01/18 08:42:17;;;;;;;4.85;2.60;;;;;;;;;;5047308;28;20017;-74
2022/01/18 08:44:43;;;;;;;9.50;2.72;;;;;;;;;;5043081;28;20061;-75
2022/01/18 08:47:17;;;;;;;3.63;2.50;;;;;;;;;;5050536;28;20029;-75
2022/01/18 08:49:44;;;;;;;3.35;2.40;;;;;;;;;;5045463;28;20055;-75
2022/01/18 08:52:10;;;;;;;3.22;2.40;;;;;;;;;;5049265;28;20503;-77
2022/01/18 08:54:36;;;;;;;4.40;2.63;;;;;;;;;;5041245;28;20030;-77
2022/01/18 08:57:03;;;;;;;4.78;2.80;;;;;;;;;;5050242;28;20056;-77
2022/01/18 08:59:35;;;;;;;6.50;2.72;;;;;;;;;;5047817;28;20140;-75
2022/01/18 09:02:01;;;;;;;3.92;2.40;;;;;;;;;;5048673;28;20484;-75
2022/01/18 09:04:27;;;;;;;3.72;2.25;;;;;;;;;;5048786;28;20017;-75
2022/01/18 09:06:55;;;;;;;3.92;2.30;;;;;;;;;;5044264;28;20400;-76
2022/01/18 09:09:22;;;;;;;4.53;2.60;;;;;;;;;;5044744;28;20116;-76
2022/01/18 09:11:48;;;;;;;4.13;2.30;;;;;;;;;;5047307;28;20078;-75
2022/01/18 09:14:15;;;;;;;2.83;2.13;;;;;;;;;;5039971;28;20358;-75
2022/01/18 09:16:41;;;;;;;3.17;2.05;;;;;;;;;;5045426;28;20029;-75
2022/01/18 09:19:08;;;;;;;3.63;2.47;;;;;;;;;;5048013;28;20021;-76
2022/01/18 09:21:34;;;;;;;2.88;2.22;;;;;;;;;;5041678;28;20056;-77
2022/01/18 09:24:03;;;;;;;4.47;2.40;;;;;;;;;;5044396;28;20028;-75
2022/01/18 09:26:29;;;;;;;3.20;1.90;;;;;;;;;;5046101;28;20465;-75
2022/01/18 09:28:55;;;;;;;2.88;2.22;;;;;;;;;;5049228;28;20123;-74
2022/01/18 09:31:22;;;;;;;3.17;2.15;;;;;;;;;;5044553;28;20401;-75
2022/01/18 09:33:48;;;;;;;5.57;2.40;;;;;;;;;;5041383;28;20017;-76
2022/01/18 09:36:14;;;;;;;2.90;2.20;;;;;;;;;;5044098;28;20125;-76
2022/01/18 09:38:40;;;;;;;4.00;2.03;;;;;;;;;;5045533;28;20052;-75
2022/01/18 09:41:11;;;;;;;2.17;1.83;;;;;;;;;;5045644;28;20037;-74
2022/01/18 09:43:38;;;;;;;3.53;2.08;;;;;;;;;;5043559;28;20473;-74
2022/01/18 09:46:05;;;;;;;4.00;2.05;;;;;;;;;;5046065;28;20400;-74
2022/01/18 09:48:31;;;;;;;4.90;2.08;;;;;;;;;;5046300;28;20068;-75
2022/01/18 09:50:58;;;;;;;3.10;2.00;;;;;;;;;;5037952;28;20056;-75
2022/01/18 09:53:25;;;;;;;3.75;1.80;;;;;;;;;;5047262;28;20052;-74
2022/01/18 09:55:53;;;;;;;2.92;1.80;;;;;;;;;;5041527;28;20041;-75
2022/01/18 09:58:19;;;;;;;2.00;1.67;;;;;;;;;;5047346;28;20045;-75
2022/01/18 10:00:46;;;;;;;5.32;2.30;;;;;;;;;;5047183;28;20033;-75
2022/01/18 10:03:32;;;;;;;3.47;2.53;;;;;;;;;;5046936;28;20032;-74
2022/01/18 10:05:58;;;;;;;2.92;2.20;;;;;;;;;;5043110;28;20021;-75
2022/01/18 10:08:24;;;;;;;5.32;3.05;;;;;;;;;;5042451;28;20013;-75
2022/01/18 10:10:53;;;;;;;6.30;3.80;;;;;;;;;;5048074;28;20531;-75
2022/01/18 10:13:30;;;;;;;6.45;3.67;;;;;;;;;;5049141;28;20041;-75
2022/01/18 10:16:06;;;;;;;6.43;4.07;;;;;;;;;;5046168;28;20085;-75
2022/01/18 10:18:47;;;;;;;9.90;4.65;;;;;;;;;;5046267;28;20524;-76
2022/01/18 10:21:15;;;;;;;11.02;4.93;;;;;;;;;;5047613;28;20020;-75
2022/01/18 10:23:49;;;;;;;8.82;5.07;;;;;;;;;;5047823;28;20540;-75
2022/01/18 10:26:19;;;;;;;14.75;6.60;;;;;;;;;;5040580;28;20025;-75
2022/01/18 10:28:45;;;;;;;8.77;4.85;;;;;;;;;;5043915;28;20025;-76
2022/01/18 10:31:25;;;;;;;10.88;5.35;;;;;;;;;;5046925;28;20088;-76
2022/01/18 10:34:10;;;;;;;16.13;6.15;;;;;;;;;;5044884;28;20025;-77
2022/01/18 10:36:36;;;;;;;11.10;5.70;;;;;;;;;;5040697;28;20495;-76
2022/01/18 10:39:03;;;;;;;11.68;6.50;;;;;;;;;;5045500;28;20037;-76
2022/01/18 10:41:31;;;;;;;10.45;6.07;;;;;;;;;;5046285;28;20035;-76
2022/01/18 10:44:06;;;;;;;11.43;6.00;;;;;;;;;;5047071;28;20392;-75
2022/01/18 10:46:40;;;;;;;11.73;6.30;;;;;;;;;;5047264;28;20032;-75
2022/01/18 10:49:07;;;;;;;10.73;6.20;;;;;;;;;;5046506;28;20028;-75
2022/01/18 10:51:34;;;;;;;13.65;5.65;;;;;;;;;;5037911;28;20072;-76
2022/01/18 10:54:02;;;;;;;13.77;6.93;;;;;;;;;;5046586;28;20017;-75
2022/01/18 10:56:42;;;;;;;9.85;5.85;;;;;;;;;;5038700;28;20024;-74
2022/01/18 10:59:09;;;;;;;13.32;6.57;;;;;;;;;;5047145;28;20072;-74
2022/01/18 11:01:35;;;;;;;11.23;6.80;;;;;;;;;;5046414;28;20041;-75
2022/01/18 11:04:15;;;;;;;15.00;7.18;;;;;;;;;;5037377;28;20021;-75
2022/01/18 11:06:43;;;;;;;18.52;9.32;;;;;;;;;;5040904;28;20076;-76
2022/01/18 11:09:11;;;;;;;11.98;6.70;;;;;;;;;;5045772;28;20017;-75
2022/01/18 11:11:41;;;;;;;11.80;6.57;;;;;;;;;;5039035;28;20029;-75
2022/01/18 11:14:08;;;;;;;12.25;6.55;;;;;;;;;;5042168;28;20028;-75
2022/01/18 11:16:40;;;;;;;17.63;8.85;;;;;;;;;;5043483;28;20033;-75
2022/01/18 11:19:08;;;;;;;10.63;5.47;;;;;;;;;;5042812;28;20021;-76
2022/01/18 11:21:35;;;;;;;23.35;11.70;;;;;;;;;;5040092;28;20163;-75
2022/01/18 11:24:01;;;;;;;15.82;7.70;;;;;;;;;;5044925;28;20029;-75
2022/01/18 11:26:28;;;;;;;11.57;5.93;;;;;;;;;;5037342;28;20073;-74
2022/01/18 11:28:56;;;;;;;23.38;10.40;;;;;;;;;;5043281;28;20437;-75
2022/01/18 11:31:23;;;;;;;18.08;10.07;;;;;;;;;;5043001;28;20028;-75
2022/01/18 11:33:59;;;;;;;17.15;9.95;;;;;;;;;;5047931;28;20025;-74
2022/01/18 11:36:27;;;;;;;18.88;9.38;;;;;;;;;;5038225;28;20106;-75
2022/01/18 11:38:55;;;;;;;16.67;8.90;;;;;;;;;;5044689;28;20032;-74
2022/01/18 11:41:22;;;;;;;12.07;6.55;;;;;;;;;;5052338;28;20074;-73
2022/01/18 11:43:51;;;;;;;9.23;4.15;;;;;;;;;;5045910;28;20119;-72
2022/01/18 11:46:26;;;;;;;7.93;4.07;;;;;;;;;;5052260;28;20083;-75
2022/01/18 11:49:03;;;;;;;8.40;4.55;;;;;;;;;;5052237;28;20595;-73
2022/01/18 11:51:48;;;;;;;9.40;5.22;;;;;;;;;;5051903;28;20048;-74
2022/01/18 11:57:24;;;;;;;9.48;4.07;;;;;;;;;;5049520;28;20040;-73
2022/01/18 11:59:53;;;;;;;11.25;4.97;;;;;;;;;;5049094;28;20024;-74
2022/01/18 12:02:27;;;;;;;10.90;6.13;;;;;;;;;;5048731;28;20117;-74
2022/01/18 12:04:56;;;;;;;12.13;5.88;;;;;;;;;;5052632;28;20039;-75
2022/01/18 12:07:34;;;;;;;8.85;5.05;;;;;;;;;;5053822;28;20108;-74
2022/01/18 12:10:09;;;;;;;9.07;4.65;;;;;;;;;;5050194;28;20100;-75
2022/01/18 12:12:46;;;;;;;7.85;4.07;;;;;;;;;;5052064;28;20025;-75
2022/01/18 12:15:18;;;;;;;5.90;4.07;;;;;;;;;;5050216;28;20021;-75
2022/01/18 12:17:48;;;;;;;3.92;2.80;;;;;;;;;;5041143;28;20029;-75
2022/01/18 12:20:33;;;;;;;6.32;3.38;;;;;;;;;;5048791;28;20021;-74
2022/01/18 12:23:04;;;;;;;8.05;4.25;;;;;;;;;;5047325;28;20021;-75
2022/01/18 12:25:33;;;;;;;9.30;4.80;;;;;;;;;;5041539;28;20021;-75
2022/01/18 12:28:03;;;;;;;5.78;3.05;;;;;;;;;;5037624;28;20052;-75
2022/01/18 12:30:53;;;;;;;9.68;3.90;;;;;;;;;;5035815;28;20027;-75
2022/01/18 12:33:19;;;;;;;10.18;5.15;;;;;;;;;;5042097;28;20464;-76
2022/01/18 12:35:46;;;;;;;12.27;7.00;;;;;;;;;;5053437;28;20507;-76
2022/01/18 12:38:24;;;;;;;11.18;6.10;;;;;;;;;;5051627;28;20040;-76
2022/01/18 12:40:53;;;;;;;13.05;6.15;;;;;;;;;;5043966;28;20514;-75
2022/01/18 12:46:05;;;;;;;18.80;7.55;;;;;;;;;;5045633;28;20673;-75
2022/01/18 12:48:35;;;;;;;12.45;7.25;;;;;;;;;;5048061;28;20033;-76
2022/01/18 12:51:02;;;;;;;15.82;7.40;;;;;;;;;;5050154;28;20032;-76
2022/01/18 12:53:30;;;;;;;13.55;7.65;;;;;;;;;;5048775;28;20013;-76
2022/01/18 12:55:57;;;;;;;11.10;7.05;;;;;;;;;;5049761;28;20111;-75
2022/01/18 12:58:24;;;;;;;17.60;9.70;;;;;;;;;;5049350;28;20719;-75
2022/01/18 13:00:52;;;;;;;16.90;7.97;;;;;;;;;;5045474;28;20027;-74
2022/01/18 13:03:21;;;;;;;18.15;9.70;;;;;;;;;;5047874;28;20029;-73
2022/01/18 13:05:48;;;;;;;15.75;8.65;;;;;;;;;;5045379;28;20508;-74
2022/01/18 13:08:18;;;;;;;13.60;7.35;;;;;;;;;;5044883;28;20029;-74
2022/01/18 13:10:46;;;;;;;15.18;6.90;;;;;;;;;;5043093;28;20051;-73
2022/01/18 13:13:14;;;;;;;8.93;5.10;;;;;;;;;;5047367;28;20120;-73
2022/01/18 13:24:22;;;;;;;6.55;3.65;;;;;;;;;;5047779;28;20040;-72
2022/01/18 13:26:55;;;;;;;9.02;4.85;;;;;;;;;;5043021;28;20029;-74
2022/01/18 13:29:23;;;;;;;8.45;4.18;;;;;;;;;;5038815;28;20325;-73
2022/01/18 13:32:12;;;;;;;5.88;3.78;;;;;;;;;;5043612;28;20358;-73
2022/01/18 13:34:39;;;;;;;7.20;3.85;;;;;;;;;;5040619;28;20417;-74
2022/01/18 13:37:11;;;;;;;7.72;3.92;;;;;;;;;;5047648;28;20555;-73
2022/01/18 13:39:44;;;;;;;11.35;3.53;;;;;;;;;;5050704;28;20028;-73
2022/01/18 13:42:10;;;;;;;5.37;3.67;;;;;;;;;;5048642;28;20043;-73
2022/01/18 13:44:37;;;;;;;8.18;3.85;;;;;;;;;;5048524;28;20381;-73
2022/01/18 13:47:16;;;;;;;10.40;3.22;;;;;;;;;;5049923;28;20384;-74
2022/01/18 13:49:43;;;;;;;6.22;3.40;;;;;;;;;;5042898;28;20045;-74
2022/01/18 13:52:11;;;;;;;5.78;3.10;;;;;;;;;;5045413;28;20021;-73
2022/01/18 13:54:50;;;;;;;8.50;4.03;;;;;;;;;;5045807;28;20037;-73
2022/01/18 13:57:17;;;;;;;8.93;4.53;;;;;;;;;;5049211;28;20033;-73
2022/01/18 13:59:44;;;;;;;6.05;3.13;;;;;;;;;;5049609;28;20037;-74
2022/01/18 14:02:20;;;;;;;6.50;3.53;;;;;;;;;;5046102;28;20407;-74
2022/01/18 14:04:48;;;;;;;10.85;4.30;;;;;;;;;;5046946;28;20117;-72
2022/01/18 14:07:14;;;;;;;10.20;3.90;;;;;;;;;;5046188;28;20063;-73
2022/01/18 14:09:41;;;;;;;7.57;3.28;;;;;;;;;;5050411;28;20033;-73
2022/01/18 14:12:15;;;;;;;6.15;3.67;;;;;;;;;;5037452;28;20025;-74
2022/01/18 14:14:43;;;;;;;4.85;3.17;;;;;;;;;;5049770;28;20447;-73
2022/01/18 14:17:15;;;;;;;7.68;4.43;;;;;;;;;;5048527;28;20396;-73
2022/01/18 14:19:44;;;;;;;5.22;2.97;;;;;;;;;;5049625;28;20047;-73
2022/01/18 14:22:17;;;;;;;11.02;2.95;;;;;;;;;;5049302;28;20044;-73
2022/01/18 14:24:45;;;;;;;5.28;2.72;;;;;;;;;;5043586;28;20086;-73
2022/01/18 14:27:12;;;;;;;7.03;3.13;;;;;;;;;;5047425;28;20029;-74
2022/01/18 14:29:41;;;;;;;4.50;3.17;;;;;;;;;;5049023;28;20029;-73
2022/01/18 14:32:11;;;;;;;5.03;3.50;;;;;;;;;;5049270;28;20043;-73
2022/01/18 14:34:41;;;;;;;6.55;3.80;;;;;;;;;;5050303;28;20111;-73
2022/01/18 14:37:08;;;;;;;6.70;2.80;;;;;;;;;;5048109;28;20549;-73
2022/01/18 14:39:51;;;;;;;5.15;3.25;;;;;;;;;;5049403;28;20503;-73
2022/01/18 14:42:17;;;;;;;9.48;3.83;;;;;;;;;;5046808;28;20032;-74
2022/01/18 14:47:25;;;;;;;9.45;4.60;;;;;;;;;;5048308;28;20041;-73
2022/01/18 14:49:58;;;;;;;6.15;3.60;;;;;;;;;;5046378;28;20036;-74
2022/01/18 14:52:25;;;;;;;6.28;3.30;;;;;;;;;;5044942;28;20391;-73
2022/01/18 14:54:52;;;;;;;5.88;3.42;;;;;;;;;;5049443;28;20052;-72
2022/01/18 14:57:18;;;;;;;7.82;3.30;;;;;;;;;;5041072;28;20042;-73
2022/01/18 14:59:44;;;;;;;5.05;3.15;;;;;;;;;;5048027;28;20399;-72
2022/01/18 15:02:11;;;;;;;5.18;3.30;;;;;;;;;;5044371;28;20021;-72
2022/01/18 15:04:38;;;;;;;6.35;3.70;;;;;;;;;;5041416;28;20056;-73
2022/01/18 15:07:05;;;;;;;6.03;3.72;;;;;;;;;;5046646;28;20029;-73
2022/01/18 15:09:31;;;;;;;5.20;3.10;;;;;;;;;;5041824;28;20027;-74
2022/01/18 15:12:02;;;;;;;4.78;3.30;;;;;;;;;;5049129;28;20567;-74
2022/01/18 15:14:28;;;;;;;6.10;3.03;;;;;;;;;;5048918;28;20053;-74
2022/01/18 15:16:55;;;;;;;4.53;2.80;;;;;;;;;;5042205;28;20120;-74
2022/01/18 15:19:21;;;;;;;4.70;2.53;;;;;;;;;;5049439;28;20032;-73
2022/01/18 15:21:47;;;;;;;5.03;2.83;;;;;;;;;;5048084;28;20451;-73
2022/01/18 15:24:14;;;;;;;5.85;3.08;;;;;;;;;;5035270;28;20105;-73
2022/01/18 15:26:43;;;;;;;5.68;2.80;;;;;;;;;;5055577;28;20036;-73
2022/01/18 15:29:09;;;;;;;6.45;2.90;;;;;;;;;;5050099;28;20400;-74
2022/01/18 15:31:35;;;;;;;6.53;3.30;;;;;;;;;;5045588;28;20504;-73
2022/01/18 15:34:01;;;;;;;5.20;2.75;;;;;;;;;;5064113;28;20392;-73
2022/01/18 15:36:28;;;;;;;6.72;2.70;;;;;;;;;;5062128;28;20032;-73
2022/01/18 15:38:55;;;;;;;6.72;2.78;;;;;;;;;;5064128;28;20033;-73
2022/01/18 15:41:21;;;;;;;3.80;2.83;;;;;;;;;;5057087;28;20029;-73
2022/01/18 15:43:54;;;;;;;7.63;3.10;;;;;;;;;;5057061;28;20025;-74
2022/01/18 15:46:20;;;;;;;5.82;3.63;;;;;;;;;;5053286;28;20586;-74
2022/01/18 15:48:48;;;;;;;5.60;3.75;;;;;;;;;;5056760;28;20057;-74
2022/01/18 15:51:14;;;;;;;8.88;4.40;;;;;;;;;;5054010;28;20476;-73
2022/01/18 15:53:40;;;;;;;7.00;4.03;;;;;;;;;;5053946;28;20021;-73
2022/01/18 15:56:06;;;;;;;6.38;4.05;;;;;;;;;;5055969;28;20082;-73
2022/01/18 15:58:33;;;;;;;9.55;3.85;;;;;;;;;;5056907;28;20061;-74
2022/01/18 16:00:59;;;;;;;5.82;3.70;;;;;;;;;;5056672;28;20037;-73
2022/01/18 16:03:25;;;;;;;7.03;4.00;;;;;;;;;;5058941;28;20622;-73
2022/01/18 16:05:52;;;;;;;6.93;3.92;;;;;;;;;;5062186;28;20045;-73
2022/01/18 16:08:19;;;;;;;6.10;3.53;;;;;;;;;;5055155;28;20033;-74
2022/01/18 16:10:47;;;;;;;10.10;4.40;;;;;;;;;;5054175;28;20568;-75
2022/01/18 16:13:13;;;;;;;8.45;3.78;;;;;;;;;;5051841;28;20021;-73
2022/01/18 16:15:39;;;;;;;9.65;4.13;;;;;;;;;;5044460;28;20592;-73
2022/01/18 16:18:05;;;;;;;8.30;4.80;;;;;;;;;;5049420;28;20032;-73
2022/01/18 16:20:32;;;;;;;12.00;4.45;;;;;;;;;;5034399;28;20485;-73
2022/01/18 16:22:59;;;;;;;11.80;4.72;;;;;;;;;;5039928;28;20019;-73